ATH weather

Eleftherios Venizelos International Airport
Athens, Attica, Greece

Public forecast

Using degrees Celsius for public forecast. Weather courtesy of forecast.io.

Current aviation weather report (METAR) for Eleftherios Venizelos International Airport

Retrieved 2019/10/16 20:20 UTC (15 minutes ago):

LGAV 162020Z 30001KT CAVOK 19/15 Q1017 NOSIG

Aviation forecast (TAF) for Eleftherios Venizelos International Airport

Retrieved 2019/10/16 18:12 UTC (2 hours ago):

TAF TAF LGAV 161700Z 1618/1718 VRB05KT 9999 FEW020 PROB30 1621/1704 5000 BR SCT010 BECMG 1704/1706 04010KT FEW020 SCT070